createdAt,value
2018-03-06T00:01:52.884Z,99764.14
2018-03-06T00:04:20.652Z,99759.33
2018-03-06T00:06:48.364Z,99756.23
2018-03-06T00:09:16.177Z,99753.06
2018-03-06T00:11:43.892Z,99752.88
2018-03-06T00:14:11.607Z,99756.09
2018-03-06T00:16:39.340Z,99749.16
2018-03-06T00:19:07.055Z,99752.78
2018-03-06T00:21:34.904Z,99753.05
2018-03-06T00:24:02.621Z,99744.44
2018-03-06T00:26:30.433Z,99754.12
2018-03-06T00:28:58.140Z,99748.55
2018-03-06T00:31:25.880Z,99753.97
2018-03-06T00:33:53.600Z,99755.16
2018-03-06T00:36:21.393Z,99754.25
2018-03-06T00:38:49.105Z,99755.89
2018-03-06T00:41:16.917Z,99759.56
2018-03-06T00:43:44.667Z,99756.00
2018-03-06T00:46:12.388Z,99750.73
2018-03-06T00:48:40.120Z,99751.98
2018-03-06T00:51:07.844Z,99752.75
2018-03-06T00:53:35.580Z,99762.51
2018-03-06T00:56:03.297Z,99760.72
2018-03-06T00:58:31.040Z,99760.98
2018-03-06T01:00:58.759Z,99761.27
2018-03-06T01:03:26.499Z,99763.69
2018-03-06T01:05:54.220Z,99755.95
2018-03-06T01:08:22.048Z,99753.36
2018-03-06T01:10:49.747Z,99750.32
2018-03-06T01:13:17.468Z,99754.12
2018-03-06T01:15:45.213Z,99747.22
2018-03-06T01:18:12.924Z,99742.05
2018-03-06T01:20:40.665Z,99730.87
2018-03-06T01:23:08.422Z,99740.11
2018-03-06T01:25:36.208Z,99729.34
2018-03-06T01:28:03.908Z,99730.52
2018-03-06T01:30:31.711Z,99729.52
2018-03-06T01:32:59.497Z,99729.83
2018-03-06T01:35:27.348Z,99736.48
2018-03-06T01:37:55.070Z,99737.55
2018-03-06T01:40:22.785Z,99730.14
2018-03-06T01:42:50.544Z,99730.03
2018-03-06T01:45:18.402Z,99728.59
2018-03-06T01:47:46.144Z,99726.31
2018-03-06T01:50:13.868Z,99719.09
2018-03-06T01:52:41.703Z,99722.42
2018-03-06T01:55:09.411Z,99716.41
2018-03-06T01:57:37.148Z,99724.48
2018-03-06T02:00:04.896Z,99717.17
2018-03-06T02:02:32.636Z,99717.97
2018-03-06T02:05:00.428Z,99714.50
2018-03-06T02:07:28.164Z,99713.53
2018-03-06T02:09:55.879Z,99708.75
2018-03-06T02:12:23.724Z,99706.94
2018-03-06T02:14:51.440Z,99709.41
2018-03-06T02:17:19.256Z,99714.82
2018-03-06T02:19:46.992Z,99708.86
2018-03-06T02:22:14.783Z,99706.73
2018-03-06T02:24:42.517Z,99705.86
2018-03-06T02:27:10.317Z,99706.65
2018-03-06T02:29:38.080Z,99701.94
2018-03-06T02:32:05.848Z,99695.09
2018-03-06T02:34:33.706Z,99689.03
2018-03-06T02:37:01.416Z,99682.67
2018-03-06T02:39:29.151Z,99683.84
2018-03-06T02:41:56.914Z,99674.48
2018-03-06T02:44:24.652Z,99671.94
2018-03-06T02:46:52.445Z,99668.96
2018-03-06T02:49:20.248Z,99670.23
2018-03-06T02:51:47.960Z,99665.58
2018-03-06T02:54:15.664Z,99665.14
2018-03-06T02:56:43.500Z,99665.96
2018-03-06T02:59:11.225Z,99667.17
2018-03-06T03:01:38.989Z,99666.61
2018-03-06T03:04:06.798Z,99661.95
2018-03-06T03:06:34.567Z,99664.50
2018-03-06T03:09:02.288Z,99667.05
2018-03-06T03:11:30.025Z,99659.74
2018-03-06T03:13:57.743Z,99659.20
2018-03-06T03:16:25.480Z,99660.80
2018-03-06T03:18:53.290Z,99664.08
2018-03-06T03:21:21.053Z,99662.69
2018-03-06T03:23:48.814Z,99663.33
2018-03-06T03:26:16.552Z,99664.47
2018-03-06T03:28:45.268Z,99657.58
2018-03-06T03:31:13.005Z,99647.30
2018-03-06T03:33:40.806Z,99650.58
2018-03-06T03:36:08.616Z,99655.51
2018-03-06T03:38:36.392Z,99652.66
2018-03-06T03:41:04.136Z,99653.70
2018-03-06T03:43:31.848Z,99651.32
2018-03-06T03:46:00.444Z,99645.94
2018-03-06T03:48:28.209Z,99652.11
2018-03-06T03:50:55.977Z,99648.91
2018-03-06T03:53:23.736Z,99647.86
2018-03-06T03:55:51.480Z,99640.94
2018-03-06T03:58:19.188Z,99641.63
2018-03-06T04:00:46.908Z,99639.38
2018-03-06T04:03:14.697Z,99642.66
2018-03-06T04:05:42.461Z,99634.89
2018-03-06T04:08:10.201Z,99630.54
2018-03-06T04:10:37.905Z,99621.13
2018-03-06T04:13:05.642Z,99627.05
2018-03-06T04:15:33.356Z,99629.97
2018-03-06T04:18:01.100Z,99629.77
2018-03-06T04:20:28.847Z,99627.09
2018-03-06T04:22:56.603Z,99631.20
2018-03-06T04:25:24.589Z,99635.22
2018-03-06T04:27:52.352Z,99632.13
2018-03-06T04:30:20.080Z,99626.94
2018-03-06T04:32:47.885Z,99629.00
2018-03-06T04:35:15.645Z,99624.27
2018-03-06T04:37:43.356Z,99625.50
2018-03-06T04:40:11.104Z,99623.26
2018-03-06T04:42:38.816Z,99620.17
2018-03-06T04:45:06.559Z,99616.28
2018-03-06T04:47:34.372Z,99612.87
2018-03-06T04:50:02.132Z,99610.68
2018-03-06T04:52:29.855Z,99608.09
2018-03-06T04:54:57.622Z,99601.62
2018-03-06T04:57:25.341Z,99600.27
2018-03-06T04:59:53.097Z,99603.22
2018-03-06T05:02:20.837Z,99593.38
2018-03-06T05:04:48.620Z,99591.59
2018-03-06T05:07:16.364Z,99592.75
2018-03-06T05:09:44.144Z,99596.50
2018-03-06T05:12:11.885Z,99592.17
2018-03-06T05:14:39.689Z,99593.02
2018-03-06T05:17:07.428Z,99594.63
2018-03-06T05:19:35.213Z,99593.77
2018-03-06T05:22:02.943Z,99592.98
2018-03-06T05:24:30.746Z,99593.02
2018-03-06T05:26:58.616Z,99597.63
2018-03-06T05:29:26.376Z,99600.94
2018-03-06T05:31:54.145Z,99601.69
2018-03-06T05:34:21.884Z,99595.75
2018-03-06T05:36:50.038Z,99588.14
2018-03-06T05:39:17.780Z,99580.52
2018-03-06T05:41:45.620Z,99581.33
2018-03-06T05:44:13.353Z,99583.36
2018-03-06T05:46:41.068Z,99584.10
2018-03-06T05:49:08.908Z,99584.08
2018-03-06T05:51:36.612Z,99590.51
2018-03-06T05:54:04.372Z,99587.28
2018-03-06T05:56:32.092Z,99583.90
2018-03-06T05:58:59.809Z,99583.13
2018-03-06T06:01:27.552Z,99582.34
2018-03-06T06:03:55.291Z,99592.14
2018-03-06T06:06:23.064Z,99594.37
2018-03-06T06:08:50.824Z,99593.27
2018-03-06T06:11:18.685Z,99592.20
2018-03-06T06:13:46.405Z,99594.02
2018-03-06T06:16:14.120Z,99587.34
2018-03-06T06:18:41.888Z,99586.65
2018-03-06T06:21:09.605Z,99587.22
2018-03-06T06:23:37.296Z,99590.81
2018-03-06T06:26:05.056Z,99593.15
2018-03-06T06:28:32.749Z,99595.02
2018-03-06T06:31:00.461Z,99595.66
2018-03-06T06:33:28.177Z,99604.78
2018-03-06T06:35:55.936Z,99604.59
2018-03-06T06:38:23.703Z,99606.95
2018-03-06T06:40:51.464Z,99606.44
2018-03-06T06:43:19.193Z,99607.60
2018-03-06T06:45:47.008Z,99610.49
2018-03-06T06:48:14.760Z,99610.77
2018-03-06T06:50:42.480Z,99606.00
2018-03-06T06:53:10.192Z,99613.10
2018-03-06T06:55:37.886Z,99613.88
2018-03-06T06:58:05.616Z,99617.60
2018-03-06T07:00:33.385Z,99618.34
2018-03-06T07:03:01.080Z,99611.84
2018-03-06T07:05:28.905Z,99617.95
2018-03-06T07:07:56.679Z,99616.91
2018-03-06T07:10:24.409Z,99621.28
2018-03-06T07:12:52.200Z,99619.43
2018-03-06T07:15:19.921Z,99621.69
2018-03-06T07:17:47.731Z,99618.84
2018-03-06T07:20:15.509Z,99619.86
2018-03-06T07:22:43.268Z,99617.48
2018-03-06T07:25:11.128Z,99615.55
2018-03-06T07:27:38.910Z,99619.61
2018-03-06T07:30:06.762Z,99616.86
2018-03-06T07:32:34.460Z,99611.20
2018-03-06T07:35:02.197Z,99614.81
2018-03-06T07:37:29.968Z,99618.83
2018-03-06T07:39:57.721Z,99618.20
2018-03-06T07:42:25.498Z,99621.45
2018-03-06T07:44:53.255Z,99617.44
2018-03-06T07:47:21.035Z,99614.74
2018-03-06T07:49:48.793Z,99614.64
2018-03-06T07:52:16.530Z,99617.16
2018-03-06T07:54:44.220Z,99615.02
2018-03-06T07:57:12.047Z,99614.57
2018-03-06T07:59:39.752Z,99612.84
2018-03-06T08:02:07.517Z,99615.41
2018-03-06T08:04:35.285Z,99607.23
2018-03-06T08:07:03.041Z,99614.41
2018-03-06T08:09:30.859Z,99622.00
2018-03-06T08:11:58.727Z,99613.88
2018-03-06T08:14:26.397Z,99622.30
2018-03-06T08:16:54.104Z,99617.95
2018-03-06T08:19:21.819Z,99618.27
2018-03-06T08:21:49.535Z,99628.33
2018-03-06T08:24:17.297Z,99624.75
2018-03-06T08:26:45.001Z,99625.86
2018-03-06T08:29:12.819Z,99620.67
2018-03-06T08:31:40.492Z,99614.64
2018-03-06T08:34:08.124Z,99612.06
2018-03-06T08:36:35.817Z,99618.38
2018-03-06T08:39:03.453Z,99609.84
2018-03-06T08:41:31.141Z,99615.83
2018-03-06T08:43:58.772Z,99617.08
2018-03-06T08:46:26.397Z,99615.34
2018-03-06T08:48:54.028Z,99611.90
2018-03-06T08:51:21.660Z,99612.28
2018-03-06T08:53:49.268Z,99606.69
2018-03-06T08:56:16.901Z,99603.20
2018-03-06T08:58:45.448Z,99606.97
2018-03-06T09:01:13.160Z,99605.63
2018-03-06T09:03:40.838Z,99604.68
2018-03-06T09:06:08.489Z,99600.70
2018-03-06T09:08:36.152Z,99599.76
2018-03-06T09:11:03.804Z,99595.85
2018-03-06T09:13:31.416Z,99595.27
2018-03-06T09:15:59.140Z,99596.38
2018-03-06T09:18:26.800Z,99602.61
2018-03-06T09:20:54.416Z,99594.30
2018-03-06T09:23:22.123Z,99591.97
2018-03-06T09:25:49.735Z,99593.05
2018-03-06T09:28:17.369Z,99587.69
2018-03-06T09:30:45.024Z,99592.61
2018-03-06T09:33:12.771Z,99591.55
2018-03-06T09:35:40.381Z,99589.63
2018-03-06T09:38:08.104Z,99593.27
2018-03-06T09:40:35.764Z,99588.77
2018-03-06T09:43:03.428Z,99589.78
2018-03-06T09:45:31.126Z,99586.47
2018-03-06T09:47:58.952Z,99591.76
2018-03-06T09:50:26.624Z,99588.48
2018-03-06T09:52:54.285Z,99584.34
2018-03-06T09:55:21.948Z,99571.66
2018-03-06T09:57:49.713Z,99579.06
2018-03-06T10:00:17.325Z,99568.07
2018-03-06T10:02:44.936Z,99567.35
2018-03-06T10:05:12.596Z,99573.48
2018-03-06T10:07:40.212Z,99565.86
2018-03-06T10:10:07.925Z,99568.98
2018-03-06T10:12:35.588Z,99572.50
2018-03-06T10:15:03.247Z,99567.02
2018-03-06T10:17:30.916Z,99571.86
2018-03-06T10:19:58.579Z,99563.84
2018-03-06T10:22:26.202Z,99564.81
2018-03-06T10:24:53.893Z,99563.69
2018-03-06T10:27:21.564Z,99556.52
2018-03-06T10:29:49.196Z,99554.52
2018-03-06T10:32:16.888Z,99543.47
2018-03-06T10:34:44.521Z,99550.05
2018-03-06T10:37:12.218Z,99547.97
2018-03-06T10:39:39.848Z,99546.78
2018-03-06T10:42:07.544Z,99540.41
2018-03-06T10:44:35.180Z,99540.91
2018-03-06T10:47:02.800Z,99530.64
2018-03-06T10:49:30.480Z,99531.98
2018-03-06T10:51:58.095Z,99528.59
2018-03-06T10:54:26.092Z,99524.35
2018-03-06T10:56:53.720Z,99519.66
2018-03-06T10:59:21.332Z,99516.23
2018-03-06T11:01:48.964Z,99515.83
2018-03-06T11:04:16.608Z,99511.13
2018-03-06T11:06:44.367Z,99511.16
2018-03-06T11:09:12.033Z,99506.50
2018-03-06T11:11:39.680Z,99495.79
2018-03-06T11:14:07.292Z,99497.56
2018-03-06T11:16:34.924Z,99495.41
2018-03-06T11:19:02.541Z,99497.64
2018-03-06T11:21:30.185Z,99503.70
2018-03-06T11:23:57.813Z,99499.45
2018-03-06T11:26:25.472Z,99491.80
2018-03-06T11:28:53.136Z,99488.39
2018-03-06T11:31:20.776Z,99484.95
2018-03-06T11:33:48.392Z,99482.83
2018-03-06T11:36:16.028Z,99478.53
2018-03-06T11:38:43.683Z,99486.29
2018-03-06T11:41:11.352Z,99482.39
2018-03-06T11:43:38.963Z,99478.96
2018-03-06T11:46:06.585Z,99478.97
2018-03-06T11:48:34.217Z,99478.10
2018-03-06T11:51:01.896Z,99473.38
2018-03-06T11:53:29.560Z,99471.66
2018-03-06T11:55:57.242Z,99473.41
2018-03-06T11:58:24.885Z,99471.67
2018-03-06T12:00:52.496Z,99476.02
2018-03-06T12:03:20.137Z,99469.59
2018-03-06T12:05:47.773Z,99471.36
2018-03-06T12:08:15.408Z,99470.95
2018-03-06T12:10:43.025Z,99465.81
2018-03-06T12:13:10.657Z,99469.70
2018-03-06T12:15:38.273Z,99467.14
2018-03-06T12:18:05.913Z,99468.88
2018-03-06T12:20:33.560Z,99469.35
2018-03-06T12:23:01.313Z,99463.80
2018-03-06T12:25:28.975Z,99458.21
2018-03-06T12:27:56.583Z,99460.79
2018-03-06T12:30:24.228Z,99460.80
2018-03-06T12:32:51.851Z,99454.77
2018-03-06T12:35:19.511Z,99456.06
2018-03-06T12:37:47.185Z,99454.77
2018-03-06T12:40:14.844Z,99455.22
2018-03-06T12:42:42.517Z,99454.34
2018-03-06T12:45:10.169Z,99443.59
2018-03-06T12:47:37.832Z,99438.89
2018-03-06T12:50:05.503Z,99440.61
2018-03-06T12:52:33.161Z,99437.16
2018-03-06T12:55:00.873Z,99436.30
2018-03-06T12:57:28.464Z,99435.47
2018-03-06T12:59:56.149Z,99429.02
2018-03-06T13:02:23.817Z,99423.42
2018-03-06T13:04:51.428Z,99422.98
2018-03-06T13:07:19.064Z,99421.72
2018-03-06T13:09:46.681Z,99419.61
2018-03-06T13:12:14.323Z,99419.63
2018-03-06T13:14:41.936Z,99414.05
2018-03-06T13:17:09.576Z,99412.77
2018-03-06T13:19:37.188Z,99407.17
2018-03-06T13:22:04.821Z,99408.87
2018-03-06T13:24:32.562Z,99405.87
2018-03-06T13:27:00.236Z,99396.81
2018-03-06T13:29:27.853Z,99400.68
2018-03-06T13:31:55.489Z,99401.11
2018-03-06T13:34:23.099Z,99404.14
2018-03-06T13:36:50.737Z,99401.58
2018-03-06T13:39:18.444Z,99401.59
2018-03-06T13:41:46.115Z,99396.01
2018-03-06T13:44:13.752Z,99400.30
2018-03-06T13:46:41.369Z,99402.01
2018-03-06T13:49:09.000Z,99402.45
2018-03-06T13:51:36.751Z,99404.58
2018-03-06T13:54:04.424Z,99402.42
2018-03-06T13:56:32.036Z,99404.98
2018-03-06T13:58:59.756Z,99401.98
2018-03-06T14:01:27.416Z,99404.98
2018-03-06T14:03:55.168Z,99407.13
2018-03-06T14:06:22.935Z,99401.95
2018-03-06T14:08:50.568Z,99401.94
2018-03-06T14:11:18.182Z,99399.37
2018-03-06T14:13:45.828Z,99399.34
2018-03-06T14:16:13.585Z,99393.77
2018-03-06T14:18:41.193Z,99390.32
2018-03-06T14:21:08.920Z,99392.03
2018-03-06T14:23:36.584Z,99389.03
2018-03-06T14:26:04.212Z,99386.04
2018-03-06T14:28:31.820Z,99377.43
2018-03-06T14:30:59.664Z,99377.03
2018-03-06T14:33:27.336Z,99377.89
2018-03-06T14:35:54.996Z,99371.44
2018-03-06T14:38:22.652Z,99374.45
2018-03-06T14:40:50.322Z,99367.98
2018-03-06T14:43:17.956Z,99369.28
2018-03-06T14:45:45.640Z,99370.13
2018-03-06T14:48:13.312Z,99363.67
2018-03-06T14:53:13.860Z,99363.66
2018-03-06T14:55:41.526Z,99362.78
2018-03-06T14:58:09.284Z,99361.91
2018-03-06T15:00:37.668Z,99355.86
2018-03-06T15:03:05.332Z,99361.86
2018-03-06T15:05:32.977Z,99358.83
2018-03-06T15:08:00.592Z,99362.22
2018-03-06T15:10:28.228Z,99358.34
2018-03-06T15:12:55.843Z,99356.17
2018-03-06T15:15:23.541Z,99363.00
2018-03-06T15:17:51.152Z,99359.52
2018-03-06T15:20:18.794Z,99357.77
2018-03-06T15:22:46.428Z,99353.45
2018-03-06T15:25:14.092Z,99351.30
2018-03-06T15:27:41.705Z,99354.71
2018-03-06T15:30:09.426Z,99343.93
2018-03-06T15:32:37.080Z,99350.36
2018-03-06T15:35:04.692Z,99346.45
2018-03-06T15:37:32.329Z,99354.16
2018-03-06T15:39:59.949Z,99349.41
2018-03-06T15:42:27.584Z,99349.82
2018-03-06T15:44:55.197Z,99347.66
2018-03-06T15:47:22.833Z,99344.23
2018-03-06T15:49:50.512Z,99343.34
2018-03-06T15:52:18.176Z,99350.62
2018-03-06T15:54:45.792Z,99349.31
2018-03-06T15:57:13.426Z,99344.14
2018-03-06T15:59:41.040Z,99347.13
2018-03-06T16:02:08.724Z,99344.95
2018-03-06T16:04:36.343Z,99342.75
2018-03-06T16:07:04.000Z,99342.73
2018-03-06T16:09:31.617Z,99343.57
2018-03-06T16:11:59.376Z,99346.13
2018-03-06T16:14:27.042Z,99343.07
2018-03-06T16:16:54.694Z,99349.05
2018-03-06T16:19:22.328Z,99352.44
2018-03-06T16:21:49.941Z,99354.55
2018-03-06T16:24:17.593Z,99356.67
2018-03-06T16:26:45.252Z,99361.77
2018-03-06T16:29:12.884Z,99368.61
2018-03-06T16:31:40.579Z,99367.27
2018-03-06T16:34:08.240Z,99368.46
2018-03-06T16:36:35.997Z,99371.44
2018-03-06T16:39:03.632Z,99374.38
2018-03-06T16:41:31.328Z,99370.03
2018-03-06T16:43:58.992Z,99373.01
2018-03-06T16:46:26.657Z,99375.95
2018-03-06T16:48:54.324Z,99379.28
2018-03-06T16:51:21.961Z,99381.36
2018-03-06T16:53:49.575Z,99380.48
2018-03-06T16:56:17.209Z,99380.84
2018-03-06T16:58:44.820Z,99386.77
2018-03-06T17:01:12.461Z,99385.39
2018-03-06T17:03:40.073Z,99386.61
2018-03-06T17:06:07.721Z,99389.03
2018-03-06T17:08:35.336Z,99394.53
2018-03-06T17:11:02.969Z,99388.00
2018-03-06T17:13:30.640Z,99391.73
2018-03-06T17:15:58.409Z,99385.63
2018-03-06T17:18:26.024Z,99391.12
2018-03-06T17:20:53.638Z,99394.89
2018-03-06T17:23:21.276Z,99396.09
2018-03-06T17:25:48.954Z,99395.62
2018-03-06T17:28:16.584Z,99393.83
2018-03-06T17:30:44.198Z,99396.32
2018-03-06T17:33:11.940Z,99395.38
2018-03-06T17:35:39.552Z,99388.48
2018-03-06T17:38:07.184Z,99392.69
2018-03-06T17:40:34.833Z,99393.06
2018-03-06T17:43:02.492Z,99395.55
2018-03-06T17:45:30.112Z,99396.37
2018-03-06T17:47:57.745Z,99402.73
2018-03-06T17:50:25.356Z,99393.66
2018-03-06T17:52:53.005Z,99397.90
2018-03-06T17:55:20.616Z,99396.99
2018-03-06T17:57:48.228Z,99395.62
2018-03-06T18:00:15.936Z,99392.58
2018-03-06T18:02:43.552Z,99395.53
2018-03-06T18:05:11.253Z,99390.78
2018-03-06T18:07:38.912Z,99396.68
2018-03-06T18:10:06.576Z,99394.91
2018-03-06T18:12:34.243Z,99393.97
2018-03-06T18:15:01.876Z,99396.48
2018-03-06T18:17:29.565Z,99392.16
2018-03-06T18:19:57.323Z,99385.75
2018-03-06T18:22:24.932Z,99389.08
2018-03-06T18:24:52.569Z,99384.75
2018-03-06T18:27:20.220Z,99386.84
2018-03-06T18:29:47.852Z,99394.53
2018-03-06T18:32:15.552Z,99384.22
2018-03-06T18:34:43.309Z,99383.80
2018-03-06T18:37:10.976Z,99386.78
2018-03-06T18:39:38.594Z,99384.61
2018-03-06T18:42:06.411Z,99383.75
2018-03-06T18:44:34.052Z,99381.56
2018-03-06T18:47:01.688Z,99374.25
2018-03-06T18:49:29.317Z,99377.20
2018-03-06T18:51:57.045Z,99378.46
2018-03-06T18:54:24.706Z,99381.41
2018-03-06T18:56:52.376Z,99382.21
2018-03-06T18:59:19.998Z,99379.56
2018-03-06T19:05:02.776Z,99375.22
2018-03-06T19:07:30.409Z,99372.18
2018-03-06T19:09:58.030Z,99374.27
2018-03-06T19:12:25.768Z,99369.95
2018-03-06T19:14:53.384Z,99377.16
2018-03-06T19:17:21.090Z,99375.78
2018-03-06T19:19:48.704Z,99379.58
2018-03-06T19:22:16.458Z,99379.52
2018-03-06T19:24:44.180Z,99386.77
2018-03-06T19:27:11.835Z,99379.47
2018-03-06T19:29:39.500Z,99382.88
2018-03-06T19:32:07.112Z,99381.59
2018-03-06T19:34:35.086Z,99387.20
2018-03-06T19:37:02.712Z,99385.55
2018-03-06T19:39:30.345Z,99387.31
2018-03-06T19:41:58.025Z,99391.20
2018-03-06T19:44:25.733Z,99392.06
2018-03-06T19:46:53.324Z,99387.84
2018-03-06T19:49:21.117Z,99387.03
2018-03-06T19:51:48.777Z,99391.78
2018-03-06T19:54:16.413Z,99390.52
2018-03-06T19:56:44.025Z,99393.97
2018-03-06T19:59:11.757Z,99391.80
2018-03-06T20:01:39.368Z,99393.08
2018-03-06T20:04:07.092Z,99395.63
2018-03-06T20:06:34.704Z,99391.74
2018-03-06T20:09:02.341Z,99397.72
2018-03-06T20:11:29.956Z,99397.66
2018-03-06T20:13:57.644Z,99394.25
2018-03-06T20:16:25.313Z,99393.78
2018-03-06T20:18:58.628Z,99383.95
2018-03-06T20:21:26.278Z,99387.36
2018-03-06T20:23:53.921Z,99385.65
2018-03-06T20:26:21.541Z,99381.34
2018-03-06T20:28:49.185Z,99380.48
2018-03-06T20:31:22.317Z,99379.19
2018-03-06T20:33:49.973Z,99382.13
2018-03-06T20:36:17.584Z,99382.52
2018-03-06T20:38:50.879Z,99378.66
2018-03-06T20:41:18.520Z,99376.09
2018-03-06T20:43:46.185Z,99378.66
2018-03-06T20:46:19.497Z,99379.09
2018-03-06T20:48:47.109Z,99381.66
2018-03-06T20:51:14.805Z,99374.80
2018-03-06T20:53:48.140Z,99376.52
2018-03-06T20:56:15.864Z,99371.81
2018-03-06T20:58:43.480Z,99373.09
2018-03-06T21:01:11.116Z,99371.39
2018-03-06T21:03:38.757Z,99373.53
2018-03-06T21:06:06.512Z,99370.11
2018-03-06T21:08:34.185Z,99373.48
2018-03-06T21:11:01.826Z,99370.92
2018-03-06T21:13:29.505Z,99379.47
2018-03-06T21:15:57.154Z,99368.78
2018-03-06T21:18:25.705Z,99371.34
2018-03-06T21:20:53.344Z,99364.50
2018-03-06T21:23:20.972Z,99367.87
2018-03-06T21:25:48.606Z,99367.87
2018-03-06T21:28:16.226Z,99361.84
2018-03-06T21:30:43.870Z,99359.28
2018-03-06T21:33:11.484Z,99352.87
2018-03-06T21:35:39.121Z,99347.37
2018-03-06T21:38:06.748Z,99346.95
2018-03-06T21:40:34.515Z,99342.73
2018-03-06T21:43:02.172Z,99342.34
2018-03-06T21:45:29.838Z,99341.92
2018-03-06T21:47:57.497Z,99340.27
2018-03-06T21:50:25.136Z,99343.73
2018-03-06T21:52:52.753Z,99340.78
2018-03-06T21:55:20.490Z,99331.82
2018-03-06T21:57:48.109Z,99328.02
2018-03-06T22:00:15.720Z,99316.05
2018-03-06T22:02:43.352Z,99328.87
2018-03-06T22:05:10.964Z,99325.45
2018-03-06T22:07:38.596Z,99319.05
2018-03-06T22:10:06.261Z,99318.62
2018-03-06T22:12:33.924Z,99318.66
2018-03-06T22:15:01.537Z,99320.85
2018-03-06T22:17:29.179Z,99334.19
2018-03-06T22:19:56.808Z,99324.80
2018-03-06T22:22:24.472Z,99325.27
2018-03-06T22:24:52.137Z,99322.70
2018-03-06T22:27:19.784Z,99331.26
2018-03-06T22:29:47.464Z,99326.98
2018-03-06T22:32:15.101Z,99326.98
2018-03-06T22:34:42.788Z,99318.87
2018-03-06T22:37:10.543Z,99318.44
2018-03-06T22:39:38.158Z,99317.19
2018-03-06T22:42:05.773Z,99319.34
2018-03-06T22:44:33.444Z,99312.93
2018-03-06T22:47:01.090Z,99318.05
2018-03-06T22:49:28.728Z,99318.95
2018-03-06T22:51:56.428Z,99319.81
2018-03-06T22:54:24.065Z,99324.14
2018-03-06T22:56:51.681Z,99326.31
2018-03-06T22:59:19.316Z,99326.75
2018-03-06T23:01:46.933Z,99325.45
2018-03-06T23:04:14.577Z,99318.57
2018-03-06T23:06:42.193Z,99320.67
2018-03-06T23:09:09.868Z,99320.66
2018-03-06T23:11:37.523Z,99318.09
2018-03-06T23:14:05.141Z,99325.36
2018-03-06T23:16:32.784Z,99329.20
2018-03-06T23:19:00.388Z,99330.03
2018-03-06T23:21:28.077Z,99330.45
2018-03-06T23:23:55.737Z,99327.84
2018-03-06T23:26:23.392Z,99326.55
2018-03-06T23:28:51.014Z,99326.55
2018-03-06T23:31:18.643Z,99329.93
2018-03-06T23:33:46.248Z,99330.36
2018-03-06T23:36:13.902Z,99329.06
2018-03-06T23:38:41.521Z,99328.12
2018-03-06T23:41:09.264Z,99322.09
2018-03-06T23:43:36.872Z,99326.73
2018-03-06T23:46:04.516Z,99319.05
2018-03-06T23:48:32.151Z,99319.04
2018-03-06T23:50:59.751Z,99315.15
2018-03-06T23:53:27.375Z,99311.36
2018-03-06T23:55:54.985Z,99311.36
2018-03-06T23:58:22.713Z,99314.78
